Time;durP1;ratioP1;P1;durP2;ratioP2;P2;SDS_P1;SDS_P2;PMS_P1;PMS_P2;Temp;Humidity;BMP_temperature;BMP_pressure;BME280_temperature;BME280_humidity;BME280_pressure;Samples;Min_cycle;Max_cycle;Signal;HPM_P1;HPM_P2
2023/12/23 00:00:38;;;;;;;13.40;6.28;;;1.00;72.10;;;;;;5072939;28;20070;-73
2023/12/23 00:03:05;;;;;;;9.60;6.18;;;1.00;72.00;;;;;;5074060;28;20395;-73
2023/12/23 00:05:31;;;;;;;11.18;6.40;;;0.90;71.90;;;;;;5073488;28;20098;-73
2023/12/23 00:07:57;;;;;;;10.52;6.75;;;0.90;72.10;;;;;;5073947;28;20421;-73
2023/12/23 00:10:23;;;;;;;4.95;4.15;;;0.90;72.10;;;;;;5073479;28;20045;-73
2023/12/23 00:12:49;;;;;;;14.07;7.45;;;0.80;72.30;;;;;;5073719;28;20020;-72
2023/12/23 00:15:15;;;;;;;8.73;6.55;;;0.90;72.50;;;;;;5073792;28;20090;-73
2023/12/23 00:17:41;;;;;;;9.77;6.03;;;0.90;72.40;;;;;;5073607;28;20074;-73
2023/12/23 00:20:07;;;;;;;11.50;4.47;;;0.80;71.40;;;;;;5074577;28;20090;-73
2023/12/23 00:22:33;;;;;;;7.93;5.57;;;0.60;70.60;;;;;;5075066;28;20478;-72
2023/12/23 00:24:59;;;;;;;4.70;3.92;;;0.60;71.50;;;;;;5075168;28;20416;-73
2023/12/23 00:27:25;;;;;;;8.93;4.38;;;0.60;71.40;;;;;;5073872;28;20036;-72
2023/12/23 00:29:51;;;;;;;9.55;4.80;;;0.50;72.10;;;;;;5073686;28;20040;-73
2023/12/23 00:32:18;;;;;;;8.85;3.85;;;0.50;72.50;;;;;;5074560;28;20420;-72
2023/12/23 00:34:44;;;;;;;10.95;4.47;;;0.60;72.60;;;;;;5073524;28;20032;-73
2023/12/23 00:37:10;;;;;;;6.90;4.63;;;0.60;72.50;;;;;;5074807;28;20044;-73
2023/12/23 00:39:36;;;;;;;12.27;6.40;;;0.60;72.50;;;;;;5073460;28;20036;-73
2023/12/23 00:42:02;;;;;;;14.98;6.38;;;0.60;72.60;;;;;;5072829;28;20463;-73
2023/12/23 00:44:28;;;;;;;12.07;5.88;;;0.70;72.70;;;;;;5074923;28;20041;-72
2023/12/23 00:46:54;;;;;;;13.30;5.90;;;0.60;73.30;;;;;;5073104;28;20033;-73
2023/12/23 00:49:20;;;;;;;7.88;4.80;;;0.60;73.70;;;;;;5074739;28;20037;-73
2023/12/23 00:51:46;;;;;;;8.52;4.97;;;0.70;74.00;;;;;;5072445;28;20040;-72
2023/12/23 00:54:12;;;;;;;8.98;5.82;;;0.70;73.80;;;;;;5074712;28;20096;-73
2023/12/23 00:56:38;;;;;;;21.85;7.28;;;0.70;73.90;;;;;;5074316;28;20079;-73
2023/12/23 00:59:04;;;;;;;23.35;11.93;;;0.70;73.80;;;;;;5074010;28;20041;-73
2023/12/23 01:01:30;;;;;;;15.55;10.05;;;0.80;73.90;;;;;;5072124;28;20105;-73
2023/12/23 01:03:56;;;;;;;15.27;7.35;;;0.80;74.00;;;;;;5074252;28;20032;-74
2023/12/23 01:06:22;;;;;;;15.55;9.20;;;0.70;74.10;;;;;;5073885;28;20048;-72
2023/12/23 01:08:48;;;;;;;17.15;7.75;;;0.70;74.30;;;;;;5072895;28;20037;-73
2023/12/23 01:11:14;;;;;;;13.23;7.72;;;0.70;74.50;;;;;;5073669;28;20451;-73
2023/12/23 01:13:40;;;;;;;11.65;6.38;;;0.70;75.00;;;;;;5074101;28;20250;-73
2023/12/23 01:16:07;;;;;;;9.52;6.38;;;0.70;75.00;;;;;;5055921;28;20040;-73
2023/12/23 01:18:33;;;;;;;13.20;6.53;;;0.70;74.60;;;;;;5072613;28;20044;-73
2023/12/23 01:20:59;;;;;;;31.27;7.72;;;0.70;74.50;;;;;;5073335;28;20077;-73
2023/12/23 01:23:25;;;;;;;13.48;6.82;;;0.60;74.00;;;;;;5089208;28;20036;-73
2023/12/23 01:25:51;;;;;;;11.43;7.65;;;0.60;74.00;;;;;;5073963;28;20398;-74
2023/12/23 01:28:17;;;;;;;20.00;10.20;;;0.50;74.20;;;;;;5073706;28;20040;-73
2023/12/23 01:30:43;;;;;;;14.68;12.32;;;0.60;74.20;;;;;;5072915;28;20024;-73
2023/12/23 01:33:09;;;;;;;12.75;6.70;;;0.50;74.30;;;;;;5073679;28;20040;-73
2023/12/23 01:35:36;;;;;;;7.88;4.57;;;0.50;74.30;;;;;;5072125;28;20067;-73
2023/12/23 01:38:02;;;;;;;;;;;0.50;74.00;;;;;;5072907;28;20052;-73
2023/12/23 01:40:29;;;;;;;7.40;5.28;;;0.50;73.80;;;;;;5071379;28;19920;-73
2023/12/23 01:42:55;;;;;;;13.23;7.65;;;0.40;73.80;;;;;;5055457;28;20035;-74
2023/12/23 01:45:21;;;;;;;10.05;5.13;;;0.40;73.80;;;;;;5071817;28;20478;-73
2023/12/23 01:47:50;;;;;;;11.82;7.38;;;0.40;73.60;;;;;;5088801;28;20455;-73
2023/12/23 01:50:19;;;;;;;13.52;7.35;;;0.40;73.40;;;;;;5087869;28;20064;-73
2023/12/23 01:52:46;;;;;;;6.10;3.55;;;0.40;73.50;;;;;;5072067;28;20037;-74
2023/12/23 01:55:12;;;;;;;12.13;6.25;;;0.50;73.70;;;;;;5073076;28;20063;-73
2023/12/23 01:57:38;;;;;;;9.50;5.95;;;0.40;73.30;;;;;;5088892;28;20032;-73
2023/12/23 02:00:05;;;;;;;;;;;0.40;73.90;;;;;;5071915;28;20119;-74
2023/12/23 02:02:31;;;;;;;9.48;5.47;;;0.40;73.80;;;;;;5072033;28;19912;-73
2023/12/23 02:04:58;;;;;;;13.50;8.65;;;0.40;74.10;;;;;;5073272;28;20041;-73
2023/12/23 02:07:24;;;;;;;21.50;7.72;;;0.40;73.80;;;;;;5072740;28;20105;-73
2023/12/23 02:09:51;;;;;;;;;;;0.50;74.60;;;;;;5071432;28;20433;-73
2023/12/23 02:12:55;;;;;;;10.35;4.18;;;0.50;74.40;;;;;;5070978;28;19916;-72
2023/12/23 02:15:23;;;;;;;8.13;5.40;;;0.50;74.30;;;;;;5072422;28;20077;-73
2023/12/23 02:18:16;;;;;;;9.40;5.75;;;0.40;74.20;;;;;;5071532;28;20033;-73
2023/12/23 02:21:04;;;;;;;7.32;5.05;;;0.40;74.40;;;;;;5071720;28;20489;-73
2023/12/23 02:23:30;;;;;;;10.85;5.45;;;0.40;74.30;;;;;;5072762;28;20039;-73
2023/12/23 02:26:00;;;;;;;7.60;4.07;;;0.40;74.60;;;;;;5071186;28;20039;-73
2023/12/23 02:28:26;;;;;;;6.50;4.50;;;0.40;74.80;;;;;;5072568;28;20044;-73
2023/12/23 02:30:54;;;;;;;8.00;4.32;;;0.40;75.00;;;;;;5053885;28;20035;-73
2023/12/23 02:33:20;;;;;;;10.65;5.07;;;0.40;74.80;;;;;;5072502;28;20033;-72
2023/12/23 02:35:52;;;;;;;4.30;2.55;;;0.40;74.40;;;;;;5071090;28;20036;-73
2023/12/23 02:38:38;;;;;;;12.63;6.53;;;0.40;75.00;;;;;;5071386;28;20074;-73
2023/12/23 02:41:04;;;;;;;10.68;5.30;;;0.50;74.90;;;;;;5070540;28;20033;-73
2023/12/23 02:43:30;;;;;;;;;;;0.50;74.80;;;;;;5071664;28;20039;-73
2023/12/23 02:45:56;;;;;;;4.70;3.33;;;0.40;74.70;;;;;;5070865;28;19912;-74
2023/12/23 02:48:22;;;;;;;6.43;3.95;;;0.40;74.50;;;;;;5072642;28;20063;-74
2023/12/23 02:50:48;;;;;;;5.75;3.70;;;0.40;74.60;;;;;;5071450;28;20036;-73
2023/12/23 02:53:14;;;;;;;10.68;6.45;;;0.40;74.60;;;;;;5071185;28;20044;-73
2023/12/23 02:55:40;;;;;;;11.10;3.90;;;0.40;74.60;;;;;;5070850;28;20029;-73
2023/12/23 02:58:07;;;;;;;9.25;4.97;;;0.40;74.90;;;;;;5072349;28;20037;-73
2023/12/23 03:00:33;;;;;;;7.03;3.53;;;0.40;74.90;;;;;;5070113;28;20307;-73
2023/12/23 03:02:59;;;;;;;8.27;5.03;;;0.40;75.00;;;;;;5072258;28;20496;-73
2023/12/23 03:05:25;;;;;;;8.65;4.35;;;0.40;75.10;;;;;;5071711;28;20046;-74
2023/12/23 03:07:51;;;;;;;13.38;7.20;;;0.40;75.30;;;;;;5072196;28;20470;-73
2023/12/23 03:10:17;;;;;;;5.85;3.92;;;0.40;75.20;;;;;;5070149;28;20122;-74
2023/12/23 03:12:43;;;;;;;21.98;5.20;;;0.40;75.40;;;;;;5072262;28;20032;-73
2023/12/23 03:15:10;;;;;;;6.53;4.68;;;0.40;75.30;;;;;;5070696;28;20053;-74
2023/12/23 03:17:36;;;;;;;8.60;5.05;;;0.40;75.30;;;;;;5087550;28;20024;-73
2023/12/23 03:20:02;;;;;;;12.30;3.60;;;0.40;75.40;;;;;;5072404;28;20094;-73
2023/12/23 03:22:28;;;;;;;8.80;4.40;;;0.40;75.70;;;;;;5089957;28;20124;-73
2023/12/23 03:24:54;;;;;;;7.82;4.75;;;0.30;75.60;;;;;;5074891;28;20126;-73
2023/12/23 03:27:20;;;;;;;9.25;3.92;;;0.30;75.50;;;;;;5074723;28;20421;-74
2023/12/23 03:29:47;;;;;;;5.63;3.10;;;0.30;75.40;;;;;;5074823;28;20563;-73
2023/12/23 03:32:13;;;;;;;7.63;4.57;;;0.30;75.40;;;;;;5057377;28;20040;-74
2023/12/23 03:34:41;;;;;;;7.03;4.15;;;0.30;75.40;;;;;;5091453;28;20029;-74
2023/12/23 03:37:07;;;;;;;9.80;6.13;;;0.30;74.60;;;;;;5075903;28;20039;-74
2023/12/23 03:39:33;;;;;;;9.73;4.40;;;0.30;75.40;;;;;;5074588;28;20044;-73
2023/12/23 03:41:59;;;;;;;7.55;4.15;;;0.40;75.60;;;;;;5073699;28;20041;-74
2023/12/23 03:44:25;;;;;;;5.57;2.90;;;0.40;75.50;;;;;;5075417;28;20101;-72
2023/12/23 03:46:51;;;;;;;5.65;3.33;;;0.40;75.40;;;;;;5090967;28;20068;-74
2023/12/23 03:49:17;;;;;;;9.13;3.92;;;0.40;76.00;;;;;;5091278;28;20111;-74
2023/12/23 03:51:43;;;;;;;5.70;3.60;;;0.40;76.00;;;;;;5074985;28;20029;-73
2023/12/23 03:54:09;;;;;;;6.30;2.38;;;0.40;76.20;;;;;;5091316;28;20452;-72
2023/12/23 03:56:35;;;;;;;7.95;3.60;;;0.30;76.30;;;;;;5075273;28;20040;-74
2023/12/23 03:59:01;;;;;;;3.88;3.28;;;0.40;76.40;;;;;;5074150;28;20036;-73
2023/12/23 04:01:27;;;;;;;8.68;3.33;;;0.40;76.80;;;;;;5074725;28;20438;-73
2023/12/23 04:03:53;;;;;;;7.65;4.38;;;0.40;76.80;;;;;;5075478;28;20480;-73
2023/12/23 04:06:19;;;;;;;9.15;5.20;;;0.40;77.10;;;;;;5075121;28;20048;-73
2023/12/23 04:08:45;;;;;;;7.68;4.25;;;0.40;77.20;;;;;;5075458;28;20497;-74
2023/12/23 04:11:11;;;;;;;3.65;2.20;;;0.40;78.40;;;;;;5073143;28;20040;-74
2023/12/23 04:13:38;;;;;;;5.63;3.45;;;0.30;78.30;;;;;;5074067;28;20098;-74
2023/12/23 04:16:05;;;;;;;6.85;3.53;;;0.40;77.10;;;;;;5073755;28;20037;-74
2023/12/23 04:18:31;;;;;;;4.20;2.85;;;0.40;76.90;;;;;;5090675;28;20402;-73
2023/12/23 04:21:00;;;;;;;4.47;3.17;;;0.40;77.10;;;;;;5072952;28;20379;-74
2023/12/23 04:23:26;;;;;;;4.60;2.45;;;0.40;77.30;;;;;;5074775;28;20041;-73
2023/12/23 04:25:52;;;;;;;5.20;3.25;;;0.40;77.40;;;;;;5074777;28;20037;-74
2023/12/23 04:28:24;;;;;;;6.38;1.73;;;0.30;77.30;;;;;;5090602;28;20044;-73
2023/12/23 04:30:54;;;;;;;4.15;2.08;;;0.40;77.60;;;;;;5074109;28;20087;-73
2023/12/23 04:33:21;;;;;;;6.40;3.22;;;0.40;77.50;;;;;;5089230;28;20043;-73
2023/12/23 04:35:48;;;;;;;5.10;3.08;;;0.40;77.30;;;;;;5074464;28;20028;-73
2023/12/23 04:38:14;;;;;;;2.72;2.22;;;0.40;77.20;;;;;;5090375;28;20052;-73
2023/12/23 04:40:41;;;;;;;;;;;0.50;77.50;;;;;;5073336;28;20032;-73
2023/12/23 04:43:07;;;;;;;3.50;1.73;;;0.50;77.20;;;;;;5074573;28;20564;-73
2023/12/23 04:45:33;;;;;;;5.30;2.55;;;0.50;77.10;;;;;;5073095;28;20029;-74
2023/12/23 04:47:59;;;;;;;3.22;2.03;;;0.50;77.10;;;;;;5073294;28;20024;-74
2023/12/23 04:50:25;;;;;;;9.00;2.85;;;0.50;77.90;;;;;;5073540;28;20113;-74
2023/12/23 04:52:51;;;;;;;5.60;2.58;;;0.40;77.00;;;;;;5073253;28;20036;-73
2023/12/23 04:55:17;;;;;;;0.50;0.45;;;0.50;77.30;;;;;;5089790;28;20078;-73
2023/12/23 04:57:43;;;;;;;1.42;0.70;;;0.50;77.50;;;;;;5074505;28;20082;-73
2023/12/23 05:00:11;;;;;;;2.40;1.27;;;0.50;77.30;;;;;;5055775;28;20041;-73
2023/12/23 05:02:37;;;;;;;2.88;2.08;;;0.40;76.80;;;;;;5072953;28;20048;-72
2023/12/23 05:05:04;;;;;;;;;;;0.40;76.80;;;;;;5073420;28;20037;-73
2023/12/23 05:07:30;;;;;;;4.43;2.28;;;0.50;77.10;;;;;;5090084;28;20007;-73
2023/12/23 05:09:56;;;;;;;2.38;1.52;;;0.50;77.60;;;;;;5072736;28;20390;-72
2023/12/23 05:12:22;;;;;;;2.17;1.67;;;0.50;77.80;;;;;;5072139;28;20079;-73
2023/12/23 05:14:50;;;;;;;;;;;0.50;78.00;;;;;;5074992;28;20043;-73
2023/12/23 05:17:16;;;;;;;3.58;1.95;;;0.50;78.10;;;;;;5073789;28;19965;-73
2023/12/23 05:19:42;;;;;;;5.53;3.05;;;0.50;79.30;;;;;;5072633;28;20121;-73
2023/12/23 05:22:08;;;;;;;4.72;1.52;;;0.60;81.10;;;;;;5072076;28;20036;-72
2023/12/23 05:24:37;;;;;;;5.13;2.65;;;0.60;80.90;;;;;;5089550;28;20543;-74
2023/12/23 05:27:05;;;;;;;3.45;2.15;;;0.80;81.20;;;;;;5073566;28;20070;-73
2023/12/23 05:29:31;;;;;;;3.88;2.33;;;0.80;82.10;;;;;;5072496;28;20043;-74
2023/12/23 05:31:57;;;;;;;6.47;2.10;;;0.90;82.30;;;;;;5072932;28;20371;-73
2023/12/23 05:34:23;;;;;;;19.23;4.13;;;0.90;83.20;;;;;;5073782;28;20052;-73
2023/12/23 05:36:49;;;;;;;6.50;4.53;;;1.00;84.00;;;;;;5073753;28;20424;-73
2023/12/23 05:39:16;;;;;;;14.25;5.90;;;1.00;84.60;;;;;;5072134;28;20040;-73
2023/12/23 05:41:42;;;;;;;7.57;5.72;;;1.10;85.30;;;;;;5072796;28;20120;-72
2023/12/23 05:44:08;;;;;;;6.40;4.38;;;1.10;85.70;;;;;;5071994;28;20047;-73
2023/12/23 05:46:34;;;;;;;7.53;5.10;;;1.10;85.90;;;;;;5072980;28;20033;-72
2023/12/23 05:49:00;;;;;;;7.80;4.57;;;1.10;86.00;;;;;;5071994;28;20033;-73
2023/12/23 05:51:26;;;;;;;7.82;3.85;;;1.20;86.20;;;;;;5071279;28;20044;-73
2023/12/23 05:53:52;;;;;;;9.80;3.67;;;1.20;86.90;;;;;;5073651;28;20033;-73
2023/12/23 05:56:19;;;;;;;8.43;4.03;;;1.30;87.40;;;;;;5073143;28;20066;-73
2023/12/23 05:58:45;;;;;;;11.10;4.85;;;1.30;87.60;;;;;;5072042;28;20049;-73
2023/12/23 06:01:11;;;;;;;5.32;3.20;;;1.30;87.70;;;;;;5072433;28;20059;-72
2023/12/23 06:03:37;;;;;;;6.78;4.10;;;1.40;87.70;;;;;;5073093;28;20029;-74
2023/12/23 06:06:04;;;;;;;7.43;4.35;;;1.40;89.00;;;;;;5072715;28;20052;-73
2023/12/23 06:08:31;;;;;;;9.18;3.90;;;1.40;88.80;;;;;;5073078;28;20055;-73
2023/12/23 06:10:57;;;;;;;8.30;4.20;;;1.40;88.50;;;;;;5072062;28;20366;-74
2023/12/23 06:13:23;;;;;;;7.15;3.97;;;1.50;89.20;;;;;;5071660;28;20356;-74
2023/12/23 06:15:49;;;;;;;;;;;1.50;89.20;;;;;;5072109;28;20036;-73
2023/12/23 06:18:15;;;;;;;8.52;5.15;;;1.50;89.10;;;;;;5088388;28;20288;-73
2023/12/23 06:20:41;;;;;;;11.75;5.22;;;1.50;89.10;;;;;;5070648;28;20382;-73
2023/12/23 06:23:07;;;;;;;6.93;2.75;;;1.50;89.10;;;;;;5072899;28;20033;-73
2023/12/23 06:25:34;;;;;;;4.43;2.53;;;1.50;89.30;;;;;;5072434;28;20074;-73
2023/12/23 06:28:00;;;;;;;13.48;4.75;;;1.60;89.20;;;;;;5072725;28;20033;-73
2023/12/23 06:30:26;;;;;;;9.23;4.03;;;1.60;89.40;;;;;;5070444;28;20052;-73
2023/12/23 06:32:52;;;;;;;2.13;1.90;;;1.60;89.40;;;;;;5071399;28;20390;-73
2023/12/23 06:35:18;;;;;;;8.73;4.80;;;1.60;89.40;;;;;;5072220;28;20086;-73
2023/12/23 06:37:44;;;;;;;;;;;1.70;89.40;;;;;;5073067;28;20025;-73
2023/12/23 06:40:11;;;;;;;7.95;3.17;;;1.60;88.90;;;;;;5070408;28;20010;-73
2023/12/23 06:42:37;;;;;;;7.75;3.20;;;1.60;88.50;;;;;;5072293;28;20035;-73
2023/12/23 06:45:04;;;;;;;3.35;2.47;;;1.70;88.90;;;;;;5072661;28;20040;-73
2023/12/23 06:47:30;;;;;;;4.57;3.28;;;1.70;88.80;;;;;;5070921;28;20082;-73
2023/12/23 06:49:56;;;;;;;6.18;4.05;;;1.70;89.00;;;;;;5088062;28;20033;-73
2023/12/23 06:52:22;;;;;;;4.95;3.30;;;1.70;88.90;;;;;;5087200;28;20036;-73
2023/12/23 06:54:48;;;;;;;4.68;2.75;;;1.80;88.70;;;;;;5071064;28;20032;-73
2023/12/23 06:57:14;;;;;;;7.05;3.03;;;1.80;88.90;;;;;;5071557;28;20043;-72
2023/12/23 06:59:45;;;;;;;7.45;3.95;;;1.80;88.60;;;;;;5072538;28;20438;-73
2023/12/23 07:02:12;;;;;;;10.88;5.43;;;1.90;88.40;;;;;;5071898;28;20041;-73
2023/12/23 07:04:38;;;;;;;7.95;3.03;;;1.90;88.40;;;;;;5072124;28;20029;-73
2023/12/23 07:07:04;;;;;;;6.93;4.07;;;1.90;88.40;;;;;;5070875;28;20502;-73
2023/12/23 07:09:30;;;;;;;7.95;4.15;;;2.00;89.00;;;;;;5070791;28;20101;-73
2023/12/23 07:11:56;;;;;;;7.93;4.28;;;1.90;88.00;;;;;;5070034;28;20452;-73
2023/12/23 07:14:22;;;;;;;10.77;5.25;;;2.00;88.00;;;;;;5072427;28;20036;-72
2023/12/23 07:16:48;;;;;;;4.40;3.05;;;2.00;87.80;;;;;;5072337;28;20070;-73
2023/12/23 07:19:14;;;;;;;9.00;5.28;;;2.00;87.80;;;;;;5070783;28;20052;-73
2023/12/23 07:21:40;;;;;;;4.97;3.00;;;2.10;88.40;;;;;;5071133;28;20025;-73
2023/12/23 07:24:06;;;;;;;4.97;2.83;;;2.10;87.30;;;;;;5070884;28;20037;-73
2023/12/23 07:26:34;;;;;;;5.40;2.60;;;2.10;87.10;;;;;;5070574;28;20087;-73
2023/12/23 07:29:02;;;;;;;4.57;2.70;;;2.20;87.00;;;;;;5087338;28;20025;-73
2023/12/23 07:31:32;;;;;;;7.38;2.65;;;2.20;86.80;;;;;;5069788;28;20033;-73
2023/12/23 07:34:17;;;;;;;3.80;1.92;;;2.30;86.70;;;;;;5072090;28;20040;-73
2023/12/23 07:36:43;;;;;;;2.30;1.42;;;2.30;86.50;;;;;;5071757;28;20025;-72
2023/12/23 07:39:09;;;;;;;1.92;1.15;;;2.30;86.50;;;;;;5070608;28;20071;-73
2023/12/23 07:41:35;;;;;;;5.10;2.85;;;2.30;86.40;;;;;;5069659;28;20036;-73
2023/12/23 07:44:01;;;;;;;3.80;1.35;;;2.40;86.50;;;;;;5069198;28;20547;-73
2023/12/23 07:46:27;;;;;;;4.97;2.40;;;2.40;86.40;;;;;;5061015;28;20043;-73
2023/12/23 07:48:53;;;;;;;3.90;2.33;;;2.50;86.30;;;;;;5070489;28;20054;-73
2023/12/23 07:51:21;;;;;;;3.22;2.25;;;2.50;86.20;;;;;;5052674;28;20436;-73
2023/12/23 07:53:47;;;;;;;4.32;2.25;;;2.50;85.40;;;;;;5053892;28;20040;-73
2023/12/23 07:56:13;;;;;;;3.42;1.80;;;2.60;85.80;;;;;;5070342;28;20036;-73
2023/12/23 07:58:40;;;;;;;4.60;2.03;;;2.70;85.80;;;;;;5053668;28;20036;-73
2023/12/23 08:01:08;;;;;;;5.45;2.10;;;2.60;85.60;;;;;;5069688;28;20108;-73
2023/12/23 08:03:35;;;;;;;4.60;3.08;;;2.70;85.70;;;;;;5070464;28;20032;-72
2023/12/23 08:06:01;;;;;;;4.43;2.03;;;2.80;85.00;;;;;;5053096;28;20091;-73
2023/12/23 08:08:27;;;;;;;7.05;2.22;;;2.80;85.30;;;;;;5072684;28;20036;-73
2023/12/23 08:10:54;;;;;;;4.25;1.65;;;2.90;85.30;;;;;;5073166;28;20040;-73
2023/12/23 08:13:20;;;;;;;6.28;2.42;;;3.00;85.00;;;;;;5057272;28;20035;-73
2023/12/23 08:15:46;;;;;;;2.05;1.45;;;3.10;84.70;;;;;;5073576;28;20029;-73
2023/12/23 08:18:12;;;;;;;;;;;3.20;84.70;;;;;;5075697;28;20036;-73
2023/12/23 08:20:38;;;;;;;2.85;2.17;;;3.30;84.60;;;;;;5073017;28;20278;-73
2023/12/23 08:23:05;;;;;;;3.65;2.42;;;3.40;84.20;;;;;;5073915;28;20029;-73
2023/12/23 08:25:31;;;;;;;9.57;5.00;;;3.50;84.10;;;;;;5075923;28;20127;-73
2023/12/23 08:27:57;;;;;;;8.00;3.65;;;3.60;83.80;;;;;;5075168;28;20571;-73
2023/12/23 08:30:23;;;;;;;6.03;2.38;;;3.70;83.50;;;;;;5072735;28;20040;-72
2023/12/23 08:32:50;;;;;;;13.30;3.40;;;3.90;83.10;;;;;;5073674;28;20020;-74
2023/12/23 08:35:16;;;;;;;2.10;1.67;;;4.10;82.70;;;;;;5073209;28;20044;-73
2023/12/23 08:37:42;;;;;;;5.47;1.63;;;4.10;82.10;;;;;;5074837;28;20055;-73
2023/12/23 08:40:10;;;;;;;5.15;2.78;;;4.20;81.80;;;;;;5057003;28;20486;-72
2023/12/23 08:42:36;;;;;;;3.22;1.50;;;4.20;81.40;;;;;;5053523;28;20032;-73
2023/12/23 08:45:03;;;;;;;2.78;1.45;;;4.30;81.40;;;;;;5053350;28;20072;-73
2023/12/23 08:47:29;;;;;;;3.47;1.42;;;4.40;81.20;;;;;;5052663;28;20060;-73
2023/12/23 08:49:55;;;;;;;2.85;1.48;;;4.40;80.90;;;;;;5054296;28;20403;-73
2023/12/23 08:52:21;;;;;;;2.25;1.63;;;4.40;80.90;;;;;;5035827;28;20037;-73
2023/12/23 08:54:47;;;;;;;3.63;1.90;;;4.50;80.80;;;;;;5053290;28;20037;-73
2023/12/23 08:57:13;;;;;;;1.90;1.33;;;4.50;80.90;;;;;;5053457;28;20029;-73
2023/12/23 08:59:39;;;;;;;3.05;1.35;;;4.60;80.60;;;;;;5054459;28;20036;-72
2023/12/23 09:02:05;;;;;;;4.50;2.25;;;4.70;80.70;;;;;;5052318;28;20045;-73
2023/12/23 09:04:31;;;;;;;1.30;1.00;;;5.50;80.20;;;;;;5052996;28;20066;-73
2023/12/23 09:06:58;;;;;;;2.03;1.60;;;7.50;72.10;;;;;;5053951;28;20056;-73
2023/12/23 09:09:24;;;;;;;1.80;1.27;;;9.70;63.10;;;;;;5053059;28;20567;-73
2023/12/23 09:11:50;;;;;;;0.98;0.65;;;10.00;59.00;;;;;;5053454;28;20525;-73
2023/12/23 09:14:16;;;;;;;1.77;0.95;;;10.00;60.00;;;;;;5052826;28;20486;-74
2023/12/23 09:16:42;;;;;;;;;;;10.60;58.30;;;;;;5052913;28;20036;-73
2023/12/23 09:19:08;;;;;;;2.42;1.83;;;10.60;58.70;;;;;;5065158;28;20382;-73
2023/12/23 09:21:34;;;;;;;2.20;1.63;;;10.60;57.40;;;;;;5072300;28;20039;-73
2023/12/23 09:24:00;;;;;;;1.70;1.10;;;10.90;56.10;;;;;;5073946;28;20387;-73
2023/12/23 09:26:26;;;;;;;2.17;1.30;;;10.70;56.60;;;;;;5073707;28;20040;-74
2023/12/23 09:28:53;;;;;;;3.33;1.88;;;10.30;57.40;;;;;;5073792;28;20037;-73
2023/12/23 09:31:19;;;;;;;3.00;0.75;;;9.80;59.40;;;;;;5051861;28;20033;-73
2023/12/23 09:33:45;;;;;;;1.75;1.23;;;9.80;60.00;;;;;;5052561;28;20128;-72
2023/12/23 09:36:12;;;;;;;2.10;1.77;;;10.40;57.80;;;;;;5052463;28;20045;-73
2023/12/23 09:38:38;;;;;;;1.52;1.00;;;10.50;57.50;;;;;;5035503;28;20037;-73
2023/12/23 09:41:05;;;;;;;1.13;0.70;;;10.40;57.70;;;;;;5071645;28;20375;-73
2023/12/23 09:43:32;;;;;;;0.80;0.35;;;10.80;55.90;;;;;;5067396;28;20456;-73
2023/12/23 09:46:02;;;;;;;0.73;0.57;;;11.40;54.30;;;;;;5055291;28;20025;-73
2023/12/23 09:48:28;;;;;;;1.52;1.23;;;12.10;51.50;;;;;;5055837;28;20413;-73
2023/12/23 09:50:54;;;;;;;0.88;0.70;;;11.90;51.40;;;;;;5071032;28;20086;-73
2023/12/23 09:53:21;;;;;;;1.55;1.00;;;11.50;52.20;;;;;;5073382;28;20036;-73
2023/12/23 09:55:48;;;;;;;1.50;1.23;;;11.30;52.10;;;;;;5073121;28;20078;-73
2023/12/23 09:58:14;;;;;;;1.42;1.30;;;11.60;50.90;;;;;;5071920;28;20033;-73
2023/12/23 10:00:40;;;;;;;;;;;11.80;51.50;;;;;;5068769;28;20037;-73
2023/12/23 10:03:07;;;;;;;0.98;0.35;;;11.30;52.80;;;;;;5053222;28;20258;-73
2023/12/23 10:05:40;;;;;;;1.63;0.90;;;11.60;52.30;;;;;;5051387;28;20036;-73
2023/12/23 10:08:07;;;;;;;0.88;0.60;;;12.40;50.50;;;;;;5053187;28;20374;-73
2023/12/23 10:10:33;;;;;;;3.00;2.00;;;12.90;48.30;;;;;;5052377;28;20225;-73
2023/12/23 10:12:59;;;;;;;;;;;13.10;46.70;;;;;;5069024;28;20043;-73
2023/12/23 10:15:25;;;;;;;5.68;1.70;;;12.50;48.10;;;;;;5051320;28;20008;-74
2023/12/23 10:17:53;;;;;;;3.40;2.30;;;13.10;47.90;;;;;;5053617;28;20060;-74
2023/12/23 10:20:19;;;;;;;2.85;1.80;;;14.40;43.80;;;;;;5071881;28;20032;-74
2023/12/23 10:22:47;;;;;;;0.63;0.52;;;13.90;43.60;;;;;;5072722;28;20116;-73
2023/12/23 10:25:14;;;;;;;1.65;1.02;;;13.80;44.60;;;;;;5071265;28;20064;-73
2023/12/23 10:28:05;;;;;;;3.03;1.35;;;13.50;44.70;;;;;;5065564;28;20017;-72
2023/12/23 10:30:35;;;;;;;1.98;1.25;;;13.80;44.70;;;;;;5068576;28;20109;-73
2023/12/23 10:33:07;;;;;;;2.08;1.10;;;13.20;45.80;;;;;;5041460;28;20032;-72
2023/12/23 10:35:58;;;;;;;2.95;0.82;;;13.40;45.10;;;;;;5052374;28;20446;-73
2023/12/23 10:38:27;;;;;;;2.25;1.08;;;12.70;47.10;;;;;;5071308;28;20133;-73
2023/12/23 10:41:34;;;;;;;1.63;0.68;;;13.00;46.60;;;;;;5071889;28;20041;-73
2023/12/23 10:44:01;;;;;;;0.73;0.52;;;13.20;45.60;;;;;;5069943;28;20113;-73
2023/12/23 10:46:29;;;;;;;0.93;0.55;;;13.50;45.40;;;;;;5071829;28;20071;-72
2023/12/23 10:48:56;;;;;;;1.08;0.90;;;13.60;45.10;;;;;;5066404;28;20041;-73
2023/12/23 10:51:22;;;;;;;1.65;0.80;;;13.40;45.40;;;;;;5069510;28;20039;-72
2023/12/23 10:53:51;;;;;;;3.03;1.85;;;13.30;45.20;;;;;;5054197;28;20543;-72
2023/12/23 10:56:18;;;;;;;1.08;0.68;;;14.70;41.60;;;;;;5071310;28;20363;-73
2023/12/23 10:58:44;;;;;;;2.05;1.23;;;14.90;40.60;;;;;;5071122;28;20074;-72
2023/12/23 11:01:13;;;;;;;1.85;1.17;;;14.70;41.50;;;;;;5053087;28;20097;-73
2023/12/23 11:03:39;;;;;;;0.70;0.57;;;14.80;41.30;;;;;;5072062;28;20055;-73
2023/12/23 11:06:07;;;;;;;3.85;2.22;;;16.10;39.20;;;;;;5070749;28;20114;-73
2023/12/23 11:08:35;;;;;;;2.08;0.98;;;17.40;35.90;;;;;;5070757;28;20035;-73
2023/12/23 11:11:01;;;;;;;1.70;1.00;;;17.70;34.90;;;;;;5070284;28;20040;-73
2023/12/23 11:13:27;;;;;;;0.65;0.52;;;17.30;35.40;;;;;;5070585;28;20070;-73
2023/12/23 11:15:55;;;;;;;0.45;0.45;;;16.00;38.10;;;;;;5070825;28;20032;-73
2023/12/23 11:18:22;;;;;;;1.75;0.68;;;15.70;38.10;;;;;;5070669;28;20033;-73
2023/12/23 11:20:50;;;;;;;1.25;0.90;;;16.00;37.80;;;;;;5053194;28;20388;-73
2023/12/23 11:23:34;;;;;;;2.25;1.25;;;15.50;38.70;;;;;;5072173;28;20040;-73
2023/12/23 11:26:02;;;;;;;1.13;0.40;;;15.30;39.30;;;;;;5053838;28;20020;-72
2023/12/23 11:28:31;;;;;;;1.88;0.95;;;14.60;41.10;;;;;;5053954;28;20040;-74
2023/12/23 11:31:00;;;;;;;1.95;1.17;;;14.90;40.80;;;;;;5069981;28;20033;-72
2023/12/23 11:33:39;;;;;;;2.33;1.40;;;16.00;38.00;;;;;;5066550;28;20025;-73
2023/12/23 11:36:06;;;;;;;2.45;1.45;;;15.90;37.50;;;;;;5045394;28;20115;-72
2023/12/23 11:38:52;;;;;;;2.53;1.25;;;14.90;38.70;;;;;;5070710;28;20041;-73
2023/12/23 11:41:39;;;;;;;4.97;3.33;;;13.80;41.80;;;;;;5066684;28;20036;-73
2023/12/23 11:44:06;;;;;;;;;;;13.30;43.90;;;;;;5038444;28;20045;-73
2023/12/23 11:46:35;;;;;;;1.17;0.68;;;14.10;42.40;;;;;;5054329;28;19913;-74
2023/12/23 11:49:01;;;;;;;0.65;0.55;;;14.70;40.10;;;;;;5054144;28;20132;-73
2023/12/23 11:51:27;;;;;;;2.92;1.75;;;13.90;41.80;;;;;;5054644;28;20155;-73
2023/12/23 11:53:54;;;;;;;1.23;0.82;;;13.20;44.10;;;;;;5055811;28;20033;-73
2023/12/23 11:56:20;;;;;;;1.88;1.10;;;13.30;44.40;;;;;;5055655;28;20029;-73
2023/12/23 11:58:46;;;;;;;0.75;0.52;;;14.80;41.10;;;;;;5054313;28;20044;-73
2023/12/23 12:01:12;;;;;;;3.80;1.92;;;17.30;36.30;;;;;;5054397;28;20380;-72
2023/12/23 12:03:38;;;;;;;5.82;2.50;;;17.70;34.00;;;;;;5055484;28;20095;-72
2023/12/23 12:06:05;;;;;;;1.42;0.60;;;17.20;35.10;;;;;;5055059;28;20068;-73
2023/12/23 12:08:31;;;;;;;1.63;1.10;;;16.00;36.70;;;;;;5054001;28;20033;-73
2023/12/23 12:10:57;;;;;;;1.63;0.80;;;15.30;39.00;;;;;;5054578;28;20121;-73
2023/12/23 12:13:45;;;;;;;1.42;0.70;;;15.00;39.30;;;;;;5055336;28;20394;-72
2023/12/23 12:16:10;;;;;;;;;;;14.50;40.90;;;;;;5054546;28;20104;-74
2023/12/23 12:18:39;;;;;;;0.65;0.55;;;13.80;42.40;;;;;;5055324;28;19924;-73
2023/12/23 12:21:05;;;;;;;1.98;1.08;;;13.40;44.00;;;;;;5052977;28;20044;-72
2023/12/23 12:23:31;;;;;;;4.72;2.67;;;13.10;45.00;;;;;;5053922;28;20375;-73
2023/12/23 12:25:58;;;;;;;2.90;2.03;;;12.70;45.80;;;;;;5054748;28;20086;-73
2023/12/23 12:28:24;;;;;;;1.38;0.80;;;12.60;46.70;;;;;;5053720;28;20338;-73
2023/12/23 12:30:50;;;;;;;;;;;12.30;46.70;;;;;;5053504;28;20040;-72
2023/12/23 12:33:16;;;;;;;0.30;0.30;;;12.30;47.10;;;;;;5055267;28;20285;-72
2023/12/23 12:35:42;;;;;;;3.22;1.35;;;12.40;47.10;;;;;;5055720;28;20102;-72
2023/12/23 12:38:09;;;;;;;1.02;0.35;;;12.60;47.10;;;;;;5062067;28;20045;-72
2023/12/23 12:40:35;;;;;;;1.42;1.17;;;13.10;45.40;;;;;;5054036;28;20037;-72
2023/12/23 12:43:38;;;;;;;;;;;13.20;44.40;;;;;;5054463;28;20093;-73
2023/12/23 12:46:06;;;;;;;1.77;1.33;;;13.40;44.70;;;;;;5073103;28;19916;-72
2023/12/23 12:48:32;;;;;;;5.72;1.35;;;13.60;43.80;;;;;;5067929;28;20111;-73
2023/12/23 12:50:59;;;;;;;5.60;2.58;;;13.60;42.90;;;;;;5068876;28;20032;-73
2023/12/23 12:53:25;;;;;;;;;;;13.80;44.00;;;;;;5063843;28;20041;-72
2023/12/23 12:55:51;;;;;;;3.28;1.40;;;14.70;42.80;;;;;;5056899;28;19943;-73
2023/12/23 12:58:18;;;;;;;1.75;1.00;;;15.30;40.00;;;;;;5053261;28;20064;-72